Time;durP1;ratioP1;P1;durP2;ratioP2;P2;SDS_P1;SDS_P2;PMS_P1;PMS_P2;Temp;Humidity;BMP_temperature;BMP_pressure;BME280_temperature;BME280_humidity;BME280_pressure;Samples;Min_cycle;Max_cycle;Signal;HPM_P1;HPM_P2
2022/01/20 00:00:14;;;;;;;;;38.50;34.75;;;;;;;;5007264;28;45374;-94
2022/01/20 00:02:40;;;;;;;;;36.50;34.00;;;;;;;;5007525;28;45313;-95
2022/01/20 00:07:47;;;;;;;;;39.25;32.50;;;;;;;;5015984;28;45215;-95
2022/01/20 00:26:24;;;;;;;;;33.50;29.25;;;;;;;;5026200;28;45578;-95
2022/01/20 00:28:53;;;;;;;;;34.50;27.75;;;;;;;;5007195;28;45279;-95
2022/01/20 00:33:48;;;;;;;;;33.25;30.00;;;;;;;;5041712;28;44759;-95
2022/01/20 00:38:42;;;;;;;;;33.00;29.50;;;;;;;;5025620;28;45290;-94
2022/01/20 00:41:12;;;;;;;;;34.25;29.25;;;;;;;;5013998;28;45232;-93
2022/01/20 00:43:42;;;;;;;;;37.25;30.50;;;;;;;;5045681;28;44906;-95
2022/01/20 00:48:47;;;;;;;;;31.00;26.50;;;;;;;;5138367;22;46063;-95
2022/01/20 00:51:13;;;;;;;;;28.25;28.00;;;;;;;;5030999;28;44957;-95
2022/01/20 00:53:43;;;;;;;;;34.75;29.50;;;;;;;;5006692;28;45215;-94
2022/01/20 00:56:11;;;;;;;;;34.75;27.75;;;;;;;;5088194;22;47242;-94
2022/01/20 00:58:40;;;;;;;;;30.50;28.25;;;;;;;;5087870;28;44776;-94
2022/01/20 01:01:06;;;;;;;;;29.00;27.75;;;;;;;;5072358;28;45343;-94
2022/01/20 01:03:31;;;;;;;;;32.25;27.50;;;;;;;;5059915;28;45704;-95
2022/01/20 01:06:33;;;;;;;;;28.75;26.50;;;;;;;;5065877;28;47264;-95
2022/01/20 01:08:45;;;;;;;;;30.50;28.25;;;;;;;;5061734;27;45441;-95
2022/01/20 01:11:10;;;;;;;;;27.50;25.25;;;;;;;;5077809;22;45969;-95
2022/01/20 01:13:36;;;;;;;;;30.00;24.75;;;;;;;;5057300;22;45156;-94
2022/01/20 01:16:01;;;;;;;;;33.25;28.00;;;;;;;;5266439;22;47129;-94
2022/01/20 01:21:30;;;;;;;;;28.00;20.75;;;;;;;;5051478;28;45222;-95
2022/01/20 01:23:55;;;;;;;;;28.25;24.25;;;;;;;;5052401;28;45367;-95
2022/01/20 01:26:24;;;;;;;;;31.75;25.50;;;;;;;;5029614;28;46926;-95
2022/01/20 01:28:50;;;;;;;;;24.75;20.50;;;;;;;;5038765;28;45454;-94
2022/01/20 01:34:09;;;;;;;;;32.25;26.50;;;;;;;;5043460;28;45650;-95
2022/01/20 01:39:29;;;;;;;;;28.75;23.75;;;;;;;;4984038;28;45559;-94
2022/01/20 01:41:56;;;;;;;;;26.00;25.50;;;;;;;;4978867;28;45408;-94
2022/01/20 01:44:26;;;;;;;;;25.50;22.25;;;;;;;;4961682;28;45425;-95
2022/01/20 01:46:51;;;;;;;;;24.25;20.00;;;;;;;;4964652;28;48094;-96
2022/01/20 01:49:17;;;;;;;;;32.75;26.75;;;;;;;;4969826;28;45321;-94
2022/01/20 01:51:43;;;;;;;;;27.75;26.00;;;;;;;;4996519;28;44849;-95
2022/01/20 01:54:09;;;;;;;;;25.00;24.75;;;;;;;;4982785;28;45555;-94
2022/01/20 01:56:36;;;;;;;;;27.75;23.00;;;;;;;;4968585;28;47297;-95
2022/01/20 01:59:01;;;;;;;;;31.00;22.00;;;;;;;;4963022;28;45344;-94
2022/01/20 02:01:28;;;;;;;;;34.00;26.25;;;;;;;;4978431;28;45647;-94
2022/01/20 02:03:59;;;;;;;;;26.75;24.00;;;;;;;;4962292;28;45531;-94
2022/01/20 02:09:22;;;;;;;;;28.00;25.25;;;;;;;;4980837;28;45452;-94
2022/01/20 02:20:14;;;;;;;;;25.00;21.75;;;;;;;;4959992;28;45331;-95
2022/01/20 02:22:40;;;;;;;;;24.00;20.50;;;;;;;;4950138;28;45328;-94
2022/01/20 02:25:05;;;;;;;;;29.25;23.50;;;;;;;;4930526;28;45489;-95
2022/01/20 02:27:30;;;;;;;;;29.00;24.25;;;;;;;;4939796;28;48137;-95
2022/01/20 02:29:56;;;;;;;;;20.25;16.25;;;;;;;;4940257;28;45300;-94
2022/01/20 02:32:21;;;;;;;;;15.50;15.50;;;;;;;;4957096;28;45853;-94
2022/01/20 02:34:46;;;;;;;;;19.75;18.75;;;;;;;;4956908;28;49033;-95
2022/01/20 02:37:14;;;;;;;;;24.00;19.25;;;;;;;;4963086;28;47148;-95
2022/01/20 02:47:14;;;;;;;;;15.50;13.75;;;;;;;;4962056;28;46049;-95
2022/01/20 02:49:40;;;;;;;;;19.67;14.00;;;;;;;;4956975;28;45449;-95
2022/01/20 02:52:06;;;;;;;;;19.25;16.25;;;;;;;;4948209;28;45503;-94
2022/01/20 02:54:31;;;;;;;;;19.50;18.25;;;;;;;;5019572;28;45567;-94
2022/01/20 02:56:57;;;;;;;;;20.00;16.75;;;;;;;;5019152;28;47910;-94
2022/01/20 02:59:22;;;;;;;;;23.50;15.25;;;;;;;;5019584;28;45480;-95
2022/01/20 03:01:47;;;;;;;;;20.25;17.00;;;;;;;;5011084;28;45372;-94
2022/01/20 03:04:12;;;;;;;;;16.67;16.00;;;;;;;;5020063;28;45490;-94
2022/01/20 03:06:38;;;;;;;;;24.00;18.00;;;;;;;;5020319;28;47330;-95
2022/01/20 03:09:04;;;;;;;;;20.50;18.75;;;;;;;;5019980;28;45372;-95
2022/01/20 03:11:29;;;;;;;;;17.50;15.00;;;;;;;;5016461;28;45285;-95
2022/01/20 03:13:54;;;;;;;;;21.00;16.25;;;;;;;;5012823;28;49132;-96
2022/01/20 03:16:20;;;;;;;;;23.75;20.00;;;;;;;;5001580;28;48269;-95
2022/01/20 03:18:45;;;;;;;;;19.25;16.25;;;;;;;;5011268;28;45302;-94
2022/01/20 03:21:10;;;;;;;;;21.75;18.25;;;;;;;;5035882;28;45445;-94
2022/01/20 03:23:35;;;;;;;;;19.25;17.25;;;;;;;;5036892;28;45329;-94
2022/01/20 03:26:01;;;;;;;;;15.75;15.75;;;;;;;;5033430;28;47129;-94
2022/01/20 03:28:27;;;;;;;;;15.50;15.00;;;;;;;;5039681;28;45896;-94
2022/01/20 03:30:52;;;;;;;;;20.25;16.25;;;;;;;;5040244;28;45208;-95
2022/01/20 03:33:19;;;;;;;;;15.75;14.00;;;;;;;;5030422;28;45425;-94
2022/01/20 03:35:44;;;;;;;;;22.25;19.00;;;;;;;;5043045;28;47388;-95
2022/01/20 03:38:10;;;;;;;;;15.50;14.75;;;;;;;;5039592;28;45823;-94
2022/01/20 03:40:35;;;;;;;;;17.00;15.50;;;;;;;;5020612;28;45732;-94
2022/01/20 03:43:00;;;;;;;;;18.50;14.75;;;;;;;;5026885;28;45582;-95
2022/01/20 03:45:27;;;;;;;;;17.00;16.25;;;;;;;;5035689;28;47562;-95
2022/01/20 03:47:55;;;;;;;;;15.75;13.00;;;;;;;;5036197;28;45365;-95
2022/01/20 03:51:21;;;;;;;;;14.33;13.00;;;;;;;;5030379;28;45285;-94
2022/01/20 03:53:15;;;;;;;;;15.50;14.50;;;;;;;;5003883;28;45413;-94
2022/01/20 03:55:41;;;;;;;;;12.50;12.50;;;;;;;;5035856;28;48572;-94
2022/01/20 03:58:07;;;;;;;;;22.25;16.25;;;;;;;;5035546;28;45614;-93
2022/01/20 04:00:32;;;;;;;;;13.50;13.50;;;;;;;;5035951;28;45356;-94
2022/01/20 04:02:57;;;;;;;;;20.00;13.00;;;;;;;;5035722;28;45569;-94
2022/01/20 04:05:23;;;;;;;;;15.50;15.00;;;;;;;;5035800;28;46712;-95
2022/01/20 04:07:48;;;;;;;;;16.00;12.75;;;;;;;;5035651;28;45326;-94
2022/01/20 04:10:13;;;;;;;;;16.75;15.50;;;;;;;;5035457;28;45273;-95
2022/01/20 04:12:38;;;;;;;;;15.67;11.33;;;;;;;;5035562;28;45445;-94
2022/01/20 04:15:08;;;;;;;;;15.33;15.33;;;;;;;;5038900;28;47368;-94
2022/01/20 04:17:34;;;;;;;;;17.00;15.50;;;;;;;;5056485;28;45281;-94
2022/01/20 04:19:59;;;;;;;;;15.25;12.25;;;;;;;;5044427;28;45511;-95
2022/01/20 04:22:26;;;;;;;;;10.50;10.00;;;;;;;;5029227;28;45430;-95
2022/01/20 04:24:52;;;;;;;;;15.75;12.50;;;;;;;;5032734;28;47161;-93
2022/01/20 04:27:17;;;;;;;;;13.75;13.75;;;;;;;;5049835;28;45333;-94
2022/01/20 04:29:42;;;;;;;;;11.00;9.00;;;;;;;;5056238;28;44692;-96
2022/01/20 04:32:07;;;;;;;;;12.33;11.67;;;;;;;;5061170;27;45061;-93
2022/01/20 04:34:33;;;;;;;;;15.25;10.50;;;;;;;;5061690;28;46918;-93
2022/01/20 04:37:00;;;;;;;;;18.75;17.25;;;;;;;;5045437;28;45364;-95
2022/01/20 04:39:29;;;;;;;;;14.00;13.00;;;;;;;;5036019;28;45423;-94
2022/01/20 04:41:54;;;;;;;;;14.00;11.75;;;;;;;;5035406;28;45270;-94
2022/01/20 04:44:48;;;;;;;;;13.00;11.00;;;;;;;;5035065;28;48031;-94
2022/01/20 04:57:54;;;;;;;;;10.00;9.00;;;;;;;;5050269;28;45933;-95
2022/01/20 05:00:19;;;;;;;;;13.33;10.33;;;;;;;;5049517;28;45362;-94
2022/01/20 05:02:44;;;;;;;;;12.33;9.67;;;;;;;;5019496;28;45340;-95
2022/01/20 05:05:09;;;;;;;;;10.67;9.00;;;;;;;;5038346;28;47543;-94
2022/01/20 05:07:35;;;;;;;;;10.00;9.33;;;;;;;;5042680;28;45753;-94
2022/01/20 05:10:05;;;;;;;;;12.67;9.33;;;;;;;;5039924;28;45267;-94
2022/01/20 05:12:49;;;;;;;;;12.67;11.33;;;;;;;;5046832;28;45480;-95
2022/01/20 05:15:15;;;;;;;;;11.00;10.33;;;;;;;;5046359;28;48120;-94
2022/01/20 05:17:40;;;;;;;;;14.00;9.67;;;;;;;;5046237;28;45470;-94
2022/01/20 05:20:05;;;;;;;;;11.67;9.67;;;;;;;;5045755;28;45364;-94
2022/01/20 05:22:31;;;;;;;;;9.67;6.00;;;;;;;;5046964;28;45488;-93
2022/01/20 05:24:56;;;;;;;;;8.00;7.67;;;;;;;;5037960;28;48286;-95
2022/01/20 05:27:21;;;;;;;;;10.00;6.67;;;;;;;;5037954;28;45733;-94
2022/01/20 05:29:46;;;;;;;;;11.67;9.00;;;;;;;;5038609;28;45553;-94
2022/01/20 05:32:12;;;;;;;;;8.67;7.67;;;;;;;;5038860;28;45758;-94
2022/01/20 05:34:37;;;;;;;;;10.33;9.33;;;;;;;;5038946;28;47352;-94
2022/01/20 05:37:02;;;;;;;;;5.00;5.00;;;;;;;;5032084;28;45384;-95
2022/01/20 05:39:28;;;;;;;;;9.00;7.33;;;;;;;;5020430;28;45755;-95
2022/01/20 05:41:53;;;;;;;;;8.00;6.67;;;;;;;;5017871;28;45250;-94
2022/01/20 05:44:18;;;;;;;;;7.67;7.67;;;;;;;;5028814;28;45406;-94
2022/01/20 05:46:48;;;;;;;;;8.33;4.00;;;;;;;;5038002;28;45519;-94
2022/01/20 05:49:20;;;;;;;;;5.67;5.67;;;;;;;;5038325;28;45478;-95
2022/01/20 05:51:46;;;;;;;;;10.33;6.67;;;;;;;;5047246;28;45505;-94
2022/01/20 05:54:11;;;;;;;;;8.67;8.67;;;;;;;;5047909;28;47984;-96
2022/01/20 05:56:36;;;;;;;;;12.33;7.33;;;;;;;;5037860;28;46030;-94
2022/01/20 05:59:02;;;;;;;;;10.00;10.00;;;;;;;;5037760;28;45922;-94
2022/01/20 06:01:27;;;;;;;;;6.33;6.33;;;;;;;;5038029;28;45758;-95
2022/01/20 06:03:53;;;;;;;;;9.67;7.00;;;;;;;;5043910;28;48228;-94
2022/01/20 06:06:19;;;;;;;;;13.00;8.33;;;;;;;;5047060;28;45404;-94
2022/01/20 06:08:44;;;;;;;;;9.00;9.00;;;;;;;;5046311;28;45527;-94
2022/01/20 06:11:09;;;;;;;;;9.67;9.00;;;;;;;;5045419;28;45381;-94
2022/01/20 06:13:35;;;;;;;;;8.00;8.00;;;;;;;;5061008;28;48019;-95
2022/01/20 06:16:00;;;;;;;;;8.33;7.67;;;;;;;;5044809;28;45364;-94
2022/01/20 06:18:26;;;;;;;;;6.67;5.67;;;;;;;;5019758;28;45393;-94
2022/01/20 06:20:51;;;;;;;;;6.75;6.75;;;;;;;;5021764;28;45433;-95
2022/01/20 06:23:17;;;;;;;;;8.67;6.00;;;;;;;;5037670;28;48294;-94
2022/01/20 06:25:43;;;;;;;;;13.50;9.00;;;;;;;;5043798;28;45349;-94
2022/01/20 06:28:08;;;;;;;;;11.50;9.75;;;;;;;;5037291;28;45425;-94
2022/01/20 06:30:34;;;;;;;;;8.25;7.50;;;;;;;;5033410;28;45536;-95
2022/01/20 06:32:59;;;;;;;;;8.00;8.00;;;;;;;;5019396;28;47520;-95
2022/01/20 06:35:24;;;;;;;;;14.75;8.50;;;;;;;;5037519;28;45429;-95
2022/01/20 06:37:50;;;;;;;;;9.33;7.33;;;;;;;;5026706;28;45222;-94
2022/01/20 06:40:16;;;;;;;;;9.00;8.00;;;;;;;;5042974;28;45181;-95
2022/01/20 06:42:41;;;;;;;;;12.00;10.00;;;;;;;;5048601;28;46977;-94
2022/01/20 06:45:08;;;;;;;;;11.50;10.00;;;;;;;;5036795;28;45877;-95
2022/01/20 06:47:34;;;;;;;;;13.50;13.50;;;;;;;;5037068;28;45411;-95
2022/01/20 06:50:00;;;;;;;;;11.25;11.00;;;;;;;;5036967;28;45380;-96
2022/01/20 06:52:25;;;;;;;;;10.25;9.75;;;;;;;;5036764;28;47921;-95
2022/01/20 06:54:50;;;;;;;;;13.25;13.25;;;;;;;;5032278;28;45520;-94
2022/01/20 06:57:16;;;;;;;;;15.00;9.50;;;;;;;;5035057;28;45337;-94
2022/01/20 06:59:41;;;;;;;;;14.67;9.33;;;;;;;;5043248;28;45404;-93
2022/01/20 07:02:06;;;;;;;;;11.33;10.00;;;;;;;;5041624;28;47329;-94
2022/01/20 07:04:32;;;;;;;;;10.33;10.33;;;;;;;;5041244;28;45543;-94
2022/01/20 07:06:58;;;;;;;;;12.75;11.00;;;;;;;;5037144;28;45430;-95
2022/01/20 07:09:23;;;;;;;;;8.33;6.00;;;;;;;;5032620;28;45532;-94
2022/01/20 07:11:48;;;;;;;;;11.00;11.00;;;;;;;;5021319;28;47460;-94
2022/01/20 07:14:14;;;;;;;;;9.00;6.33;;;;;;;;5035080;28;45900;-93
2022/01/20 07:16:39;;;;;;;;;15.33;11.67;;;;;;;;5033405;28;45371;-94
2022/01/20 07:19:05;;;;;;;;;10.00;8.50;;;;;;;;5037684;28;45532;-94
2022/01/20 07:21:30;;;;;;;;;7.50;6.00;;;;;;;;5034416;28;47065;-94
2022/01/20 07:23:55;;;;;;;;;10.75;10.00;;;;;;;;5019771;28;45347;-93
2022/01/20 07:26:21;;;;;;;;;11.25;11.00;;;;;;;;5017529;28;45344;-90
2022/01/20 07:28:46;;;;;;;;;10.50;9.75;;;;;;;;5032950;28;45416;-90
2022/01/20 07:31:11;;;;;;;;;10.50;9.50;;;;;;;;5031776;28;45370;-91
2022/01/20 07:33:37;;;;;;;;;10.25;8.75;;;;;;;;5023763;28;45694;-91
2022/01/20 07:36:03;;;;;;;;;11.25;11.25;;;;;;;;5040047;28;45443;-91
2022/01/20 07:38:29;;;;;;;;;12.33;10.00;;;;;;;;5020989;28;45383;-94
2022/01/20 07:40:54;;;;;;;;;11.00;6.00;;;;;;;;5017559;28;46270;-92
2022/01/20 07:43:19;;;;;;;;;11.75;9.75;;;;;;;;5018358;28;46073;-94
2022/01/20 07:45:45;;;;;;;;;9.25;7.00;;;;;;;;5025925;28;45398;-95
2022/01/20 07:48:11;;;;;;;;;6.25;5.75;;;;;;;;5013060;28;45463;-95
2022/01/20 07:50:36;;;;;;;;;13.25;11.25;;;;;;;;5028231;28;48386;-96
2022/01/20 07:53:01;;;;;;;;;14.50;12.00;;;;;;;;5030187;28;45427;-95
2022/01/20 07:55:26;;;;;;;;;14.25;10.25;;;;;;;;5026875;28;45374;-96
2022/01/20 07:57:52;;;;;;;;;8.00;5.67;;;;;;;;5019205;28;45400;-96
2022/01/20 08:00:17;;;;;;;;;13.25;9.25;;;;;;;;5017576;28;47051;-96
2022/01/20 08:02:44;;;;;;;;;16.00;11.75;;;;;;;;5020540;28;45468;-96
2022/01/20 08:05:09;;;;;;;;;14.00;9.50;;;;;;;;5008582;28;45519;-96
2022/01/20 08:07:34;;;;;;;;;14.00;9.67;;;;;;;;5013618;28;45637;-95
2022/01/20 08:10:00;;;;;;;;;9.75;3.50;;;;;;;;5012349;28;47191;-96
2022/01/20 08:12:26;;;;;;;;;12.50;11.25;;;;;;;;5014307;28;45450;-96
2022/01/20 08:14:51;;;;;;;;;13.00;9.67;;;;;;;;5008550;28;45325;-96
2022/01/20 08:17:17;;;;;;;;;9.25;9.25;;;;;;;;5032535;28;45556;-96
2022/01/20 08:19:42;;;;;;;;;11.67;7.33;;;;;;;;4999931;28;47066;-96
2022/01/20 08:22:07;;;;;;;;;14.33;10.33;;;;;;;;4993930;28;45570;-95
2022/01/20 08:24:32;;;;;;;;;8.00;6.33;;;;;;;;4993850;28;45433;-94
2022/01/20 08:26:58;;;;;;;;;12.33;9.00;;;;;;;;4984866;28;45263;-95
2022/01/20 08:29:23;;;;;;;;;9.67;9.67;;;;;;;;4985612;28;48181;-96
2022/01/20 08:31:48;;;;;;;;;9.33;9.00;;;;;;;;4990643;28;46186;-95
2022/01/20 08:34:14;;;;;;;;;13.33;11.33;;;;;;;;5005002;28;45428;-94
2022/01/20 08:36:39;;;;;;;;;14.00;9.00;;;;;;;;5002122;28;45531;-95
2022/01/20 08:39:21;;;;;;;;;15.00;11.67;;;;;;;;5014841;28;45444;-95
2022/01/20 08:41:46;;;;;;;;;11.00;8.33;;;;;;;;4996766;28;45542;-96
2022/01/20 08:44:12;;;;;;;;;10.00;8.67;;;;;;;;5000342;28;44732;-95
2022/01/20 08:46:41;;;;;;;;;13.00;11.00;;;;;;;;4994013;28;45423;-96
2022/01/20 08:49:06;;;;;;;;;11.67;11.33;;;;;;;;5003358;28;48105;-96
2022/01/20 08:51:31;;;;;;;;;11.33;9.67;;;;;;;;5007615;28;45292;-95
2022/01/20 08:53:57;;;;;;;;;16.33;13.33;;;;;;;;4995299;28;46471;-96
2022/01/20 08:56:23;;;;;;;;;15.00;13.00;;;;;;;;4986367;28;45321;-96
2022/01/20 08:58:48;;;;;;;;;12.33;8.33;;;;;;;;4998179;28;47843;-96
2022/01/20 09:01:13;;;;;;;;;14.25;10.25;;;;;;;;4998154;28;45400;-96
2022/01/20 09:03:38;;;;;;;;;14.00;14.00;;;;;;;;5000984;28;45436;-95
2022/01/20 09:06:05;;;;;;;;;21.33;13.67;;;;;;;;4996132;28;45300;-96
2022/01/20 09:08:30;;;;;;;;;10.00;10.00;;;;;;;;4997400;28;48191;-96
2022/01/20 09:10:56;;;;;;;;;14.33;12.67;;;;;;;;4997599;28;45880;-96
2022/01/20 09:16:05;;;;;;;;;15.00;10.33;;;;;;;;5007802;28;45490;-95
2022/01/20 09:18:30;;;;;;;;;10.67;10.67;;;;;;;;4995674;28;48380;-96
2022/01/20 09:20:55;;;;;;;;;14.00;9.33;;;;;;;;4991169;28;45744;-96
2022/01/20 09:23:20;;;;;;;;;7.00;5.67;;;;;;;;5010078;28;45382;-96
2022/01/20 09:25:49;;;;;;;;;18.67;11.00;;;;;;;;5005247;28;45473;-95
2022/01/20 09:28:14;;;;;;;;;15.67;14.00;;;;;;;;5005231;28;47286;-96
2022/01/20 09:30:41;;;;;;;;;14.33;10.67;;;;;;;;4996671;28;45924;-95
2022/01/20 09:33:16;;;;;;;;;22.33;18.67;;;;;;;;4989048;28;45490;-96
2022/01/20 09:35:42;;;;;;;;;17.75;14.50;;;;;;;;4995829;28;45413;-94
2022/01/20 09:38:08;;;;;;;;;16.33;14.33;;;;;;;;4992209;28;47423;-96
2022/01/20 09:40:34;;;;;;;;;23.50;16.25;;;;;;;;4999784;28;45419;-95
2022/01/20 09:42:59;;;;;;;;;16.33;15.33;;;;;;;;4993397;28;45422;-96
2022/01/20 09:45:25;;;;;;;;;18.00;14.67;;;;;;;;4989013;28;45465;-95
2022/01/20 09:47:50;;;;;;;;;15.33;13.33;;;;;;;;4997522;28;47247;-95
2022/01/20 09:50:19;;;;;;;;;12.33;11.33;;;;;;;;5000255;28;45723;-96
2022/01/20 09:52:44;;;;;;;;;13.00;12.33;;;;;;;;4996974;28;45336;-95
2022/01/20 09:55:10;;;;;;;;;15.25;13.50;;;;;;;;4988124;28;45418;-96
2022/01/20 09:57:35;;;;;;;;;13.50;13.25;;;;;;;;4997000;28;47303;-95
2022/01/20 10:00:01;;;;;;;;;16.00;14.00;;;;;;;;4993136;28;46248;-96
2022/01/20 10:02:26;;;;;;;;;22.50;16.00;;;;;;;;4996517;28;45450;-96
2022/01/20 10:04:53;;;;;;;;;19.50;14.00;;;;;;;;4999921;28;45339;-95
2022/01/20 10:07:18;;;;;;;;;26.00;20.50;;;;;;;;4998278;28;47266;-92
2022/01/20 10:09:45;;;;;;;;;22.00;17.50;;;;;;;;4991488;28;45500;-95
2022/01/20 10:12:12;;;;;;;;;21.50;15.25;;;;;;;;4999107;28;45317;-95
2022/01/20 10:14:45;;;;;;;;;17.67;14.33;;;;;;;;5005464;28;45385;-95
2022/01/20 10:17:16;;;;;;;;;17.75;15.50;;;;;;;;4996593;28;47638;-95
2022/01/20 10:19:42;;;;;;;;;20.25;17.25;;;;;;;;5027337;28;45647;-95
2022/01/20 10:22:14;;;;;;;;;22.75;17.75;;;;;;;;5034984;28;45548;-96
2022/01/20 10:24:40;;;;;;;;;23.50;18.25;;;;;;;;5034075;28;45372;-95
2022/01/20 10:27:12;;;;;;;;;27.25;20.00;;;;;;;;5035530;28;47181;-95
2022/01/20 10:29:37;;;;;;;;;23.25;20.75;;;;;;;;5037445;28;45582;-95
2022/01/20 10:32:03;;;;;;;;;21.50;17.00;;;;;;;;5030565;28;45454;-95
2022/01/20 10:34:32;;;;;;;;;24.75;21.25;;;;;;;;5035058;28;45278;-95
2022/01/20 10:37:24;;;;;;;;;20.25;18.75;;;;;;;;5044648;28;47979;-95
2022/01/20 10:39:49;;;;;;;;;21.25;18.00;;;;;;;;5047878;28;45415;-94
2022/01/20 10:42:15;;;;;;;;;18.25;17.00;;;;;;;;5045304;28;45384;-96
2022/01/20 10:44:48;;;;;;;;;19.00;19.00;;;;;;;;5037421;28;45586;-95
2022/01/20 10:47:15;;;;;;;;;21.50;16.50;;;;;;;;5026903;28;46733;-94
2022/01/20 10:49:41;;;;;;;;;17.00;16.33;;;;;;;;5022430;28;45500;-95
2022/01/20 10:52:07;;;;;;;;;17.00;17.00;;;;;;;;5031566;28;45368;-96
2022/01/20 10:54:46;;;;;;;;;17.67;15.33;;;;;;;;5040632;28;45478;-95
2022/01/20 10:57:15;;;;;;;;;24.50;19.00;;;;;;;;5031267;28;48395;-95
2022/01/20 11:00:06;;;;;;;;;22.75;21.25;;;;;;;;5038867;28;45851;-94
2022/01/20 11:02:31;;;;;;;;;18.00;18.00;;;;;;;;5024875;28;44939;-95
2022/01/20 11:04:57;;;;;;;;;18.50;16.50;;;;;;;;5046966;28;45200;-95
2022/01/20 11:07:23;;;;;;;;;22.25;18.00;;;;;;;;5032720;28;46642;-94
2022/01/20 11:10:04;;;;;;;;;17.67;17.33;;;;;;;;5032117;28;45520;-96
2022/01/20 11:12:30;;;;;;;;;17.00;16.33;;;;;;;;5033170;28;45351;-95
2022/01/20 11:14:57;;;;;;;;;19.00;17.33;;;;;;;;5035475;28;45233;-94
2022/01/20 11:17:22;;;;;;;;;21.00;20.50;;;;;;;;5029615;28;49457;-94
2022/01/20 11:19:47;;;;;;;;;22.00;21.50;;;;;;;;5038714;28;45399;-94
2022/01/20 11:22:13;;;;;;;;;23.50;20.75;;;;;;;;5036116;28;45383;-94
2022/01/20 11:24:39;;;;;;;;;18.67;18.00;;;;;;;;5031902;28;45365;-94
2022/01/20 11:27:06;;;;;;;;;21.33;19.00;;;;;;;;5031619;28;47222;-94
2022/01/20 11:29:50;;;;;;;;;20.67;16.67;;;;;;;;5024582;28;45742;-93
2022/01/20 11:32:23;;;;;;;;;18.00;16.33;;;;;;;;5027636;28;45577;-92
2022/01/20 11:34:59;;;;;;;;;15.67;14.33;;;;;;;;5034288;28;45535;-93
2022/01/20 11:37:25;;;;;;;;;15.67;13.00;;;;;;;;5029306;28;48563;-95
2022/01/20 11:39:51;;;;;;;;;20.33;12.33;;;;;;;;5022456;28;45391;-92
2022/01/20 11:42:21;;;;;;;;;16.33;14.33;;;;;;;;5029112;28;45476;-93
2022/01/20 11:44:46;;;;;;;;;14.00;11.67;;;;;;;;5033730;28;44818;-94
2022/01/20 11:47:11;;;;;;;;;13.33;13.00;;;;;;;;5027985;28;47282;-93
2022/01/20 11:49:37;;;;;;;;;16.00;9.67;;;;;;;;5028511;28;46009;-93
2022/01/20 11:52:03;;;;;;;;;14.00;13.33;;;;;;;;5029324;28;45621;-93
2022/01/20 11:54:36;;;;;;;;;7.33;7.00;;;;;;;;5033570;28;46556;-96
2022/01/20 11:57:06;;;;;;;;;11.67;8.67;;;;;;;;5031336;28;47407;-94
2022/01/20 11:59:45;;;;;;;;;10.00;9.00;;;;;;;;5035447;28;45907;-95
2022/01/20 12:02:22;;;;;;;;;14.67;12.00;;;;;;;;5030177;28;45595;-94
2022/01/20 12:04:51;;;;;;;;;9.33;8.33;;;;;;;;5047925;28;45302;-95
2022/01/20 12:07:29;;;;;;;;;8.67;8.67;;;;;;;;5055851;28;46477;-92
2022/01/20 12:10:10;;;;;;;;;11.00;8.67;;;;;;;;5048021;28;45376;-95
2022/01/20 12:12:38;;;;;;;;;12.33;9.00;;;;;;;;5039030;28;44876;-95
2022/01/20 12:15:14;;;;;;;;;11.00;8.00;;;;;;;;5029385;28;45427;-93
2022/01/20 12:17:41;;;;;;;;;6.67;6.67;;;;;;;;5036874;28;45417;-95
2022/01/20 12:20:07;;;;;;;;;5.00;3.67;;;;;;;;5010214;28;45308;-95
2022/01/20 12:22:38;;;;;;;;;6.67;6.67;;;;;;;;4992307;28;44813;-95
2022/01/20 12:25:03;;;;;;;;;12.00;8.00;;;;;;;;4993555;28;45748;-93
2022/01/20 12:27:28;;;;;;;;;9.67;8.33;;;;;;;;5002391;28;46916;-94
2022/01/20 12:29:53;;;;;;;;;10.33;6.00;;;;;;;;5007387;28;45345;-92
2022/01/20 12:32:20;;;;;;;;;10.00;8.67;;;;;;;;5006620;28;45443;-94
2022/01/20 12:34:55;;;;;;;;;8.67;7.67;;;;;;;;5010000;28;45510;-92
2022/01/20 12:37:21;;;;;;;;;12.67;8.67;;;;;;;;4990012;28;47349;-93
2022/01/20 12:39:46;;;;;;;;;11.33;8.00;;;;;;;;4984946;28;45307;-91
2022/01/20 12:42:11;;;;;;;;;9.00;8.00;;;;;;;;5020795;28;45270;-93
2022/01/20 12:44:48;;;;;;;;;9.33;7.00;;;;;;;;5006553;28;45488;-91
2022/01/20 12:47:14;;;;;;;;;7.00;7.00;;;;;;;;5016635;28;45688;-92
2022/01/20 12:49:39;;;;;;;;;8.33;8.00;;;;;;;;5005609;28;45481;-91
2022/01/20 12:52:06;;;;;;;;;10.67;7.00;;;;;;;;5006529;28;45405;-91
2022/01/20 12:54:32;;;;;;;;;16.00;9.00;;;;;;;;4997100;28;45412;-91
2022/01/20 12:56:58;;;;;;;;;8.00;7.00;;;;;;;;4993103;28;48377;-91
2022/01/20 12:59:28;;;;;;;;;5.67;4.00;;;;;;;;5003483;28;45600;-90
2022/01/20 13:01:55;;;;;;;;;6.67;5.33;;;;;;;;5007706;28;45673;-91
2022/01/20 13:04:22;;;;;;;;;3.67;3.67;;;;;;;;5004617;28;45376;-91
2022/01/20 13:07:02;;;;;;;;;4.67;3.00;;;;;;;;5013185;28;46099;-91
2022/01/20 13:09:46;;;;;;;;;7.33;5.67;;;;;;;;4994520;28;45494;-90
2022/01/20 13:12:12;;;;;;;;;7.00;5.33;;;;;;;;5002414;28;45415;-91
2022/01/20 13:14:44;;;;;;;;;7.00;4.67;;;;;;;;4989462;28;45212;-90
2022/01/20 13:17:11;;;;;;;;;7.00;6.00;;;;;;;;5016339;28;46222;-90
2022/01/20 13:19:37;;;;;;;;;4.00;3.33;;;;;;;;5031625;28;45404;-92
2022/01/20 13:22:05;;;;;;;;;10.67;7.33;;;;;;;;5024598;28;45271;-91
2022/01/20 13:24:31;;;;;;;;;6.67;4.00;;;;;;;;5030068;28;45469;-91
2022/01/20 13:26:57;;;;;;;;;4.00;4.00;;;;;;;;5028414;28;46081;-90
2022/01/20 13:29:23;;;;;;;;;5.67;4.33;;;;;;;;5018880;28;45464;-91
2022/01/20 13:31:49;;;;;;;;;7.00;6.00;;;;;;;;5007438;28;45595;-91
2022/01/20 13:34:15;;;;;;;;;4.67;3.00;;;;;;;;5010047;28;45596;-91
2022/01/20 13:36:42;;;;;;;;;5.67;3.00;;;;;;;;5002406;28;46526;-91
2022/01/20 13:39:07;;;;;;;;;6.67;4.33;;;;;;;;5034626;28;45585;-91
2022/01/20 13:41:32;;;;;;;;;6.00;5.00;;;;;;;;5017571;28;45579;-92
2022/01/20 13:46:44;;;;;;;;;7.00;5.00;;;;;;;;5028136;28;45527;-91
2022/01/20 13:49:10;;;;;;;;;7.00;5.33;;;;;;;;5026342;28;45456;-90
2022/01/20 13:51:35;;;;;;;;;11.33;8.33;;;;;;;;5022188;28;45707;-90
2022/01/20 13:54:04;;;;;;;;;7.00;6.67;;;;;;;;5018442;28;45351;-90
2022/01/20 13:56:30;;;;;;;;;4.67;4.67;;;;;;;;5020633;28;47686;-90
2022/01/20 13:59:09;;;;;;;;;12.67;4.33;;;;;;;;5023652;28;45325;-91
2022/01/20 14:01:34;;;;;;;;;11.67;5.00;;;;;;;;5014453;28;45565;-91
2022/01/20 14:04:00;;;;;;;;;7.00;6.33;;;;;;;;5016680;28;45524;-91
2022/01/20 14:06:26;;;;;;;;;5.00;3.33;;;;;;;;5018288;28;46079;-90
2022/01/20 14:08:52;;;;;;;;;6.00;6.00;;;;;;;;5042143;28;45452;-91
2022/01/20 14:11:17;;;;;;;;;8.33;7.00;;;;;;;;5025240;28;45434;-91
2022/01/20 14:13:45;;;;;;;;;6.00;6.00;;;;;;;;5035185;28;44880;-91
2022/01/20 14:16:10;;;;;;;;;11.67;6.00;;;;;;;;5020132;28;47708;-91
2022/01/20 14:18:42;;;;;;;;;11.33;10.00;;;;;;;;5031180;28;45312;-92
2022/01/20 14:21:13;;;;;;;;;3.33;3.33;;;;;;;;5051350;28;45282;-92
2022/01/20 14:23:38;;;;;;;;;8.33;8.00;;;;;;;;5040037;28;45300;-90
2022/01/20 14:26:07;;;;;;;;;5.67;4.00;;;;;;;;5044396;28;45393;-91
2022/01/20 14:28:32;;;;;;;;;6.00;2.67;;;;;;;;5032834;28;45539;-90
2022/01/20 14:30:58;;;;;;;;;4.33;3.67;;;;;;;;5039137;28;46038;-91
2022/01/20 14:33:24;;;;;;;;;6.33;4.00;;;;;;;;5038028;28;45480;-93
2022/01/20 14:35:49;;;;;;;;;4.33;4.33;;;;;;;;5032756;28;47133;-91
2022/01/20 14:38:15;;;;;;;;;6.33;3.00;;;;;;;;5026072;28;45318;-91
2022/01/20 14:40:40;;;;;;;;;6.00;6.00;;;;;;;;5032107;28;45288;-92
2022/01/20 14:43:05;;;;;;;;;4.33;4.33;;;;;;;;5034171;28;45804;-92
2022/01/20 14:45:30;;;;;;;;;6.67;6.00;;;;;;;;5038663;28;47188;-90
2022/01/20 14:47:55;;;;;;;;;8.00;7.00;;;;;;;;5025019;28;44872;-91
2022/01/20 14:50:22;;;;;;;;;7.67;6.00;;;;;;;;5026441;28;45272;-93
2022/01/20 14:52:48;;;;;;;;;3.00;3.00;;;;;;;;5025389;28;45951;-90
2022/01/20 14:55:13;;;;;;;;;4.33;4.33;;;;;;;;5021632;28;45751;-88
2022/01/20 14:57:38;;;;;;;;;3.00;3.00;;;;;;;;5024694;28;45586;-90
2022/01/20 15:00:05;;;;;;;;;4.00;4.00;;;;;;;;5032959;28;45546;-91
2022/01/20 15:02:30;;;;;;;;;7.33;5.33;;;;;;;;5028183;28;45697;-90
2022/01/20 15:04:55;;;;;;;;;6.67;3.00;;;;;;;;5020357;28;46504;-89
2022/01/20 15:07:21;;;;;;;;;3.00;3.00;;;;;;;;5017804;28;45406;-90
2022/01/20 15:09:47;;;;;;;;;6.67;3.00;;;;;;;;5009008;28;45392;-90
2022/01/20 15:12:12;;;;;;;;;11.33;7.67;;;;;;;;5018409;28;45272;-90
2022/01/20 15:14:38;;;;;;;;;10.33;9.00;;;;;;;;5015418;28;48359;-90
2022/01/20 15:17:03;;;;;;;;;5.67;3.00;;;;;;;;5027137;28;45552;-90
2022/01/20 15:19:29;;;;;;;;;6.00;6.00;;;;;;;;5025479;28;45536;-90
2022/01/20 15:21:54;;;;;;;;;5.33;5.33;;;;;;;;5015724;28;45346;-91
2022/01/20 15:24:19;;;;;;;;;5.33;5.33;;;;;;;;5029672;28;47057;-92
2022/01/20 15:26:44;;;;;;;;;6.67;6.33;;;;;;;;5039158;28;45391;-91
2022/01/20 15:29:10;;;;;;;;;10.67;6.00;;;;;;;;5023431;28;45585;-90
2022/01/20 15:31:36;;;;;;;;;5.33;2.33;;;;;;;;5042991;28;45483;-90
2022/01/20 15:34:09;;;;;;;;;7.00;6.00;;;;;;;;5052109;28;45468;-92